Time;durP1;ratioP1;P1;durP2;ratioP2;P2;SDS_P1;SDS_P2;PMS_P1;PMS_P2;Temp;Humidity;BMP_temperature;BMP_pressure;BME280_temperature;BME280_humidity;BME280_pressure;Samples;Min_cycle;Max_cycle;Signal;HPM_P1;HPM_P2
2023/07/14 00:00:33;;;;;;;78.47;73.80;;;;;;;25.05;46.53;101802.31;5068352;28;20032;-69
2023/07/14 00:03:00;;;;;;;62.30;58.78;;;;;;;25.67;45.54;101809.53;5068605;28;20037;-69
2023/07/14 00:05:32;;;;;;;54.30;51.08;;;;;;;25.94;44.83;101800.81;5068001;28;20111;-69
2023/07/14 00:07:58;;;;;;;62.38;58.35;;;;;;;25.90;44.49;101801.00;5069502;28;20473;-69
2023/07/14 00:10:31;;;;;;;61.05;57.00;;;;;;;26.01;44.56;101804.88;5086058;28;20030;-69
2023/07/14 00:12:58;;;;;;;62.63;58.70;;;;;;;25.95;44.57;101799.88;5067508;28;20024;-69
2023/07/14 00:15:24;;;;;;;78.85;74.18;;;;;;;26.08;44.51;101814.28;5070035;28;20472;-68
2023/07/14 00:17:57;;;;;;;80.43;75.45;;;;;;;26.04;44.66;101791.31;5068091;28;20601;-68
2023/07/14 00:20:27;;;;;;;;;;;;;;;25.81;45.07;101798.03;5068343;28;20032;-69
2023/07/14 00:22:54;;;;;;;77.72;73.32;;;;;;;25.79;45.14;101792.75;5067986;28;19947;-68
2023/07/14 00:25:22;;;;;;;78.00;73.65;;;;;;;25.03;47.13;101793.50;5085298;28;20544;-69
2023/07/14 00:27:49;;;;;;;92.57;86.78;;;;;;;24.50;48.62;101800.84;5067442;28;20028;-69
2023/07/14 00:30:25;;;;;;;85.65;80.53;;;;;;;23.80;51.07;101796.38;5068681;28;20656;-68
2023/07/14 00:32:52;;;;;;;70.70;66.30;;;;;;;24.76;48.64;101787.88;5067614;28;20540;-69
2023/07/14 00:35:27;;;;;;;70.10;65.85;;;;;;;25.08;47.69;101780.75;5067705;28;20025;-69
2023/07/14 00:37:57;;;;;;;60.28;56.67;;;;;;;24.66;48.75;101790.19;5084852;28;20404;-68
2023/07/14 00:40:37;;;;;;;63.97;59.28;;;;;;;25.18;47.83;101786.44;5084684;28;20625;-69
2023/07/14 00:43:05;;;;;;;58.47;55.03;;;;;;;25.50;46.73;101778.41;5069843;28;20035;-69
2023/07/14 00:45:34;;;;;;;46.92;43.92;;;;;;;25.31;47.17;101786.63;5085058;28;20544;-69
2023/07/14 00:48:04;;;;;;;40.85;38.63;;;;;;;25.77;45.79;101778.59;5068696;28;20488;-68
2023/07/14 00:50:39;;;;;;;38.08;35.78;;;;;;;25.40;46.93;101783.41;5070018;28;20449;-68
2023/07/14 00:53:14;;;;;;;39.50;37.00;;;;;;;25.20;47.21;101777.38;5068266;28;20031;-69
2023/07/14 00:55:43;;;;;;;36.22;34.17;;;;;;;25.48;46.87;101767.78;5066778;28;20048;-69
2023/07/14 00:58:18;;;;;;;33.63;31.70;;;;;;;25.77;45.99;101778.59;5085256;28;20033;-69
2023/07/14 01:01:08;;;;;;;33.65;31.58;;;;;;;25.64;46.31;101778.47;5069044;28;20560;-69
2023/07/14 01:03:44;;;;;;;34.22;31.67;;;;;;;25.71;45.70;101768.25;5083867;28;20031;-68
2023/07/14 01:06:16;;;;;;;32.28;30.25;;;;;;;25.86;45.64;101767.34;5084938;28;20036;-69
2023/07/14 01:08:53;;;;;;;30.00;28.05;;;;;;;25.84;45.26;101763.91;5068281;28;20113;-68
2023/07/14 01:11:22;;;;;;;34.25;32.05;;;;;;;25.77;45.23;101767.88;5068287;28;20139;-69
2023/07/14 01:13:48;;;;;;;40.28;37.63;;;;;;;25.41;45.91;101758.41;5067554;28;20111;-69
2023/07/14 01:16:15;;;;;;;33.92;31.90;;;;;;;25.81;45.25;101766.75;5067130;28;20013;-69
2023/07/14 01:18:42;;;;;;;36.38;34.17;;;;;;;25.96;44.89;101764.09;5067846;28;20021;-69
2023/07/14 01:21:08;;;;;;;37.75;35.67;;;;;;;25.74;45.34;101763.56;5088854;28;20082;-68
2023/07/14 01:23:51;;;;;;;38.92;36.55;;;;;;;25.40;45.73;101762.03;5087865;28;20031;-68
2023/07/14 01:26:56;;;;;;;37.85;35.30;;;;;;;25.80;45.20;101757.00;5072004;28;20050;-69
2023/07/14 01:29:22;;;;;;;37.55;35.45;;;;;;;25.57;45.35;101763.72;5057876;28;20416;-69
2023/07/14 01:31:48;;;;;;;33.45;31.50;;;;;;;25.35;45.46;101754.28;5072175;28;20097;-69
2023/07/14 01:34:15;;;;;;;33.47;31.63;;;;;;;25.46;45.45;101753.66;5073225;28;20028;-69
2023/07/14 01:36:42;;;;;;;29.63;27.73;;;;;;;25.19;46.35;101751.56;5087365;28;20123;-68
2023/07/14 01:39:09;;;;;;;31.55;29.48;;;;;;;25.39;45.94;101749.63;5071683;28;20170;-69
2023/07/14 01:41:35;;;;;;;28.15;26.20;;;;;;;25.14;46.46;101742.97;5071284;28;20074;-69
2023/07/14 01:44:04;;;;;;;27.10;25.23;;;;;;;25.24;45.84;101737.94;5071005;28;20151;-69
2023/07/14 01:46:30;;;;;;;21.92;20.65;;;;;;;25.17;46.03;101740.13;5071392;28;20488;-69
2023/07/14 01:48:58;;;;;;;22.45;21.13;;;;;;;25.62;44.96;101748.22;5071216;28;20028;-69
2023/07/14 01:51:26;;;;;;;20.58;19.25;;;;;;;25.55;45.20;101746.88;5072272;28;20020;-69
2023/07/14 01:54:02;;;;;;;20.40;18.95;;;;;;;25.13;46.00;101748.38;5072316;28;20036;-69
2023/07/14 01:56:29;;;;;;;16.95;15.73;;;;;;;25.18;46.56;101736.50;5057631;28;20049;-69
2023/07/14 01:59:03;;;;;;;23.42;22.10;;;;;;;25.20;46.22;101742.59;5033575;28;20032;-69
2023/07/14 02:01:30;;;;;;;19.35;18.20;;;;;;;24.47;47.78;101750.22;5052567;28;20036;-69
2023/07/14 02:03:57;;;;;;;18.80;17.65;;;;;;;25.05;46.17;101746.16;5034043;28;20024;-69
2023/07/14 02:06:23;;;;;;;17.30;16.10;;;;;;;24.78;46.76;101741.41;5033694;28;20528;-69
2023/07/14 02:08:50;;;;;;;16.05;15.00;;;;;;;24.46;47.05;101744.03;5033952;28;20029;-69
2023/07/14 02:11:21;;;;;;;21.85;20.58;;;;;;;23.91;48.05;101749.66;5034427;28;20024;-69
2023/07/14 02:13:47;;;;;;;21.17;19.85;;;;;;;24.87;46.84;101738.22;5033373;28;20040;-69
2023/07/14 02:16:15;;;;;;;18.33;17.33;;;;;;;25.09;46.24;101745.03;5034295;28;20388;-69
2023/07/14 02:18:42;;;;;;;21.27;20.02;;;;;;;24.98;45.75;101732.28;5051805;28;20044;-68
2023/07/14 02:21:10;;;;;;;24.40;23.08;;;;;;;24.79;46.08;101735.13;5033577;28;20051;-69
2023/07/14 02:23:38;;;;;;;24.45;22.92;;;;;;;24.71;46.67;101729.34;5033700;28;20114;-69
2023/07/14 02:26:36;;;;;;;25.70;24.30;;;;;;;25.28;45.04;101727.91;5033603;28;20033;-68
2023/07/14 02:29:05;;;;;;;26.70;25.20;;;;;;;24.83;45.84;101722.47;5036332;28;20086;-69
2023/07/14 02:31:38;;;;;;;30.92;29.23;;;;;;;25.06;44.97;101718.47;5033570;28;20029;-69
2023/07/14 02:34:04;;;;;;;33.05;30.98;;;;;;;25.41;44.40;101731.63;5033337;28;20029;-69
2023/07/14 02:37:01;;;;;;;32.30;30.42;;;;;;;25.48;44.45;101721.44;5033809;28;20028;-69
2023/07/14 02:39:35;;;;;;;31.90;29.73;;;;;;;24.93;45.11;101720.97;5050589;28;20029;-69
2023/07/14 02:42:01;;;;;;;33.72;31.80;;;;;;;23.72;48.03;101718.53;5033274;28;20039;-69
2023/07/14 02:44:37;;;;;;;37.50;35.50;;;;;;;24.25;46.71;101722.03;5033836;28;20037;-69
2023/07/14 02:47:16;;;;;;;32.03;30.40;;;;;;;24.59;45.85;101725.50;5050863;28;20040;-69
2023/07/14 02:49:42;;;;;;;40.08;37.80;;;;;;;23.90;46.90;101726.56;5051065;28;20310;-68
2023/07/14 02:52:07;;;;;;;35.88;33.92;;;;;;;23.83;46.95;101725.97;5033729;28;20109;-69
2023/07/14 02:54:37;;;;;;;37.47;35.22;;;;;;;23.85;47.33;101724.97;5032944;28;20395;-69
2023/07/14 02:57:03;;;;;;;29.60;27.95;;;;;;;23.85;47.39;101722.28;5069661;28;20480;-69
2023/07/14 02:59:28;;;;;;;28.00;26.45;;;;;;;22.87;49.29;101723.56;5070066;28;20035;-69
2023/07/14 03:01:54;;;;;;;31.20;29.60;;;;;;;24.19;46.31;101719.66;5070278;28;20033;-69
2023/07/14 03:04:20;;;;;;;26.38;24.90;;;;;;;24.73;45.28;101711.44;5070179;28;20024;-69
2023/07/14 03:06:46;;;;;;;23.83;22.42;;;;;;;24.50;45.68;101721.53;5069223;28;20423;-69
2023/07/14 03:09:11;;;;;;;22.05;20.75;;;;;;;24.73;45.13;101724.78;5070581;28;20024;-68
2023/07/14 03:11:37;;;;;;;20.80;19.35;;;;;;;24.37;45.85;101724.03;5069616;28;20032;-69
2023/07/14 03:14:04;;;;;;;23.75;22.40;;;;;;;24.05;46.65;101725.75;5069868;28;20033;-69
2023/07/14 03:16:29;;;;;;;20.02;18.88;;;;;;;24.71;45.50;101713.31;5069069;28;20028;-69
2023/07/14 03:18:56;;;;;;;20.42;19.30;;;;;;;24.24;45.92;101714.09;5069123;28;20070;-69
2023/07/14 03:21:22;;;;;;;17.85;16.83;;;;;;;23.99;46.75;101712.72;5069639;28;20040;-69
2023/07/14 03:23:47;;;;;;;16.85;15.90;;;;;;;24.32;46.35;101704.72;5085360;28;20028;-68
2023/07/14 03:26:12;;;;;;;14.80;13.95;;;;;;;24.89;44.69;101701.59;5069715;28;20036;-69
2023/07/14 03:28:38;;;;;;;16.15;15.10;;;;;;;24.84;44.69;101705.44;5069080;28;20392;-69
2023/07/14 03:31:04;;;;;;;14.02;12.93;;;;;;;24.16;46.30;101715.34;5068838;28;20063;-69
2023/07/14 03:33:32;;;;;;;15.23;13.80;;;;;;;24.70;45.31;101706.22;5069456;28;20055;-69
2023/07/14 03:36:05;;;;;;;12.73;12.07;;;;;;;23.94;46.56;101710.28;5086039;28;20544;-69
2023/07/14 03:38:40;;;;;;;17.95;16.08;;;;;;;23.36;48.76;101711.44;5068823;28;20145;-69
2023/07/14 03:41:06;;;;;;;20.02;18.83;;;;;;;22.97;49.16;101704.44;5086082;28;20395;-69
2023/07/14 03:43:31;;;;;;;15.65;14.68;;;;;;;22.95;49.35;101706.31;5069529;28;20036;-68
2023/07/14 03:45:57;;;;;;;12.75;11.85;;;;;;;22.78;50.49;101710.66;5068941;28;20028;-69
2023/07/14 03:48:23;;;;;;;21.50;20.30;;;;;;;22.12;51.89;101711.88;5069033;28;20037;-69
2023/07/14 03:50:49;;;;;;;17.95;16.83;;;;;;;23.25;49.28;101697.81;5069389;28;20032;-69
2023/07/14 03:53:14;;;;;;;17.15;15.52;;;;;;;22.85;50.42;101701.44;5069192;28;20034;-69
2023/07/14 03:55:40;;;;;;;15.73;14.57;;;;;;;23.45;48.60;101700.34;5061645;28;20432;-69
2023/07/14 03:58:06;;;;;;;17.40;16.23;;;;;;;23.02;49.53;101692.59;5049648;28;20037;-69
2023/07/14 04:00:32;;;;;;;14.82;13.73;;;;;;;23.07;49.94;101695.06;5032721;28;20047;-69
2023/07/14 04:02:58;;;;;;;14.15;13.10;;;;;;;22.33;52.09;101693.22;5031735;28;20433;-70
2023/07/14 04:05:23;;;;;;;14.55;13.27;;;;;;;23.43;49.59;101691.53;5031584;28;20124;-69
2023/07/14 04:07:49;;;;;;;12.60;11.82;;;;;;;23.20;49.87;101690.91;5048475;28;20119;-69
2023/07/14 04:10:14;;;;;;;10.65;10.00;;;;;;;23.43;49.39;101686.19;5032372;28;20051;-69
2023/07/14 04:12:40;;;;;;;10.68;9.63;;;;;;;22.84;51.22;101693.50;5049091;28;20488;-69
2023/07/14 04:15:06;;;;;;;13.25;12.20;;;;;;;22.73;52.12;101680.69;5032093;28;20036;-69
2023/07/14 04:17:31;;;;;;;9.13;8.52;;;;;;;23.29;50.37;101683.38;5031779;28;20033;-69
2023/07/14 04:19:57;;;;;;;8.90;8.05;;;;;;;22.95;51.38;101685.00;5030729;28;20079;-69
2023/07/14 04:22:23;;;;;;;8.27;7.18;;;;;;;23.13;51.47;101689.44;5031892;28;20511;-69
2023/07/14 04:24:48;;;;;;;6.72;6.28;;;;;;;23.45;49.99;101684.31;5049669;28;20032;-69
2023/07/14 04:27:14;;;;;;;6.95;6.55;;;;;;;23.82;49.14;101686.88;5030975;28;20029;-69
2023/07/14 04:29:40;;;;;;;9.63;7.78;;;;;;;23.11;51.14;101685.97;5049527;28;20816;-69
2023/07/14 04:32:07;;;;;;;7.82;7.13;;;;;;;23.58;49.78;101681.03;5031887;28;20583;-69
2023/07/14 04:34:34;;;;;;;8.40;7.72;;;;;;;22.85;51.33;101679.25;5031243;28;20123;-69
2023/07/14 04:37:00;;;;;;;13.05;7.38;;;;;;;23.74;49.73;101689.97;5031914;28;20488;-69
2023/07/14 04:39:25;;;;;;;5.75;5.35;;;;;;;23.49;50.35;101688.56;5031822;28;20033;-69
2023/07/14 04:41:52;;;;;;;12.07;6.82;;;;;;;24.08;48.68;101690.00;5030386;28;20043;-69
2023/07/14 04:44:18;;;;;;;7.28;6.72;;;;;;;23.52;49.92;101691.06;5048617;28;20443;-69
2023/07/14 04:46:44;;;;;;;8.40;6.53;;;;;;;23.86;49.22;101694.66;5048327;28;20492;-69
2023/07/14 04:49:11;;;;;;;7.25;6.25;;;;;;;24.36;48.15;101678.69;5035023;28;20086;-69
2023/07/14 04:51:38;;;;;;;9.02;8.38;;;;;;;23.32;50.76;101677.88;5031163;28;20436;-68
2023/07/14 04:54:05;;;;;;;6.40;5.90;;;;;;;24.38;48.50;101674.13;5062627;28;20024;-69
2023/07/14 04:56:34;;;;;;;10.10;8.52;;;;;;;24.98;46.75;101683.28;5079011;28;20511;-68
2023/07/14 04:59:00;;;;;;;20.10;18.65;;;;;;;24.40;47.95;101677.59;5089857;28;20055;-68
2023/07/14 05:01:30;;;;;;;51.70;48.72;;;;;;;23.96;48.92;101680.84;5087633;28;20063;-68
2023/07/14 05:03:56;;;;;;;87.93;82.95;;;;;;;23.80;49.30;101676.28;5088228;28;20032;-68
2023/07/14 05:06:22;;;;;;;91.03;85.60;;;;;;;24.88;47.03;101673.13;5088129;28;20396;-69
2023/07/14 05:08:47;;;;;;;90.03;85.18;;;;;;;24.61;47.32;101672.00;5088462;28;20036;-68
2023/07/14 05:11:12;;;;;;;81.53;76.95;;;;;;;24.30;48.67;101671.00;5088364;28;20036;-68
2023/07/14 05:13:38;;;;;;;75.00;70.63;;;;;;;24.81;47.19;101661.06;5087981;28;20032;-68
2023/07/14 05:16:04;;;;;;;64.68;60.95;;;;;;;24.26;48.62;101670.31;5087529;28;20024;-68
2023/07/14 05:18:29;;;;;;;61.65;58.25;;;;;;;24.61;47.62;101669.31;5087894;28;20028;-68
2023/07/14 05:21:00;;;;;;;61.67;58.25;;;;;;;24.95;47.21;101667.41;5089205;28;20498;-69
2023/07/14 05:23:27;;;;;;;58.45;55.20;;;;;;;24.81;47.90;101661.06;5087451;28;20167;-68
2023/07/14 05:25:53;;;;;;;68.68;64.63;;;;;;;24.71;48.14;101659.84;5087710;28;20034;-68
2023/07/14 05:28:18;;;;;;;61.22;57.63;;;;;;;24.18;48.78;101660.06;5087979;28;20024;-69
2023/07/14 05:30:44;;;;;;;78.10;73.45;;;;;;;24.15;49.13;101657.56;5086862;28;20391;-68
2023/07/14 05:33:12;;;;;;;72.95;68.78;;;;;;;24.92;48.01;101656.91;5089554;28;20034;-68
2023/07/14 05:35:38;;;;;;;88.47;83.63;;;;;;;24.33;48.59;101665.50;5087504;28;20024;-68
2023/07/14 05:38:03;;;;;;;93.60;86.95;;;;;;;24.69;48.12;101665.28;5088553;28;20490;-67
2023/07/14 05:40:31;;;;;;;99.65;94.30;;;;;;;24.43;49.14;101661.38;5088036;28;20024;-68
2023/07/14 05:42:57;;;;;;;101.97;96.20;;;;;;;25.13;47.38;101661.00;5086858;28;20028;-68
2023/07/14 05:45:23;;;;;;;111.93;105.50;;;;;;;24.34;49.00;101660.06;5087963;28;20032;-68
2023/07/14 05:47:48;;;;;;;120.10;113.22;;;;;;;24.25;49.67;101662.38;5087288;28;20036;-68
2023/07/14 05:50:15;;;;;;;122.10;115.38;;;;;;;24.79;48.52;101664.78;5087130;28;20107;-68
2023/07/14 05:52:40;;;;;;;133.15;125.50;;;;;;;25.04;47.42;101661.53;5087416;28;20457;-68
2023/07/14 05:55:06;;;;;;;145.27;137.02;;;;;;;24.56;49.06;101661.53;5087836;28;20048;-68
2023/07/14 05:57:37;;;;;;;139.20;131.10;;;;;;;24.95;48.80;101652.25;5087357;28;20036;-68
2023/07/14 06:00:16;;;;;;;158.45;149.48;;;;;;;24.89;48.40;101650.78;5087777;28;20027;-68
2023/07/14 06:02:43;;;;;;;158.30;148.27;;;;;;;25.46;47.53;101657.31;5087446;28;20036;-68
2023/07/14 06:05:10;;;;;;;156.15;147.10;;;;;;;25.27;47.05;101657.50;5089090;28;20023;-68
2023/07/14 06:07:37;;;;;;;178.32;167.82;;;;;;;24.93;48.60;101647.94;5090801;28;20115;-68
2023/07/14 06:10:03;;;;;;;178.90;168.88;;;;;;;24.16;50.09;101643.25;5092640;28;20056;-68
2023/07/14 06:12:29;;;;;;;199.07;187.48;;;;;;;25.38;47.97;101649.72;5091719;28;20048;-68
2023/07/14 06:14:55;;;;;;;193.77;182.80;;;;;;;25.57;47.11;101654.84;5091082;28;20543;-68
2023/07/14 06:17:20;;;;;;;204.27;192.88;;;;;;;25.13;48.22;101647.63;5091215;28;20075;-68
2023/07/14 06:19:46;;;;;;;208.82;197.13;;;;;;;24.65;50.29;101644.19;5090075;28;20114;-69
2023/07/14 06:22:11;;;;;;;210.98;199.13;;;;;;;25.82;46.79;101647.97;5090991;28;20114;-69
2023/07/14 06:24:37;;;;;;;232.60;219.75;;;;;;;25.26;47.47;101644.22;5091694;28;20028;-68
2023/07/14 06:27:05;;;;;;;245.43;231.75;;;;;;;26.80;45.33;101634.69;5090277;28;20023;-69
2023/07/14 06:29:31;;;;;;;393.88;369.25;;;;;;;25.89;45.80;101649.31;5090949;28;20052;-69
2023/07/14 06:31:56;;;;;;;610.10;568.03;;;;;;;27.50;43.52;101638.94;5090500;28;20028;-68
2023/07/14 06:34:22;;;;;;;840.40;776.75;;;;;;;28.52;40.96;101637.13;5090040;28;20036;-69
2023/07/14 06:36:47;;;;;;;959.45;880.85;;;;;;;27.84;41.96;101641.97;5090377;28;20475;-69
2023/07/14 06:39:13;;;;;;;1034.70;941.85;;;;;;;26.35;44.65;101634.00;5089984;28;20028;-68
2023/07/14 06:41:38;;;;;;;1022.03;931.42;;;;;;;26.53;44.89;101632.84;5090396;28;20032;-69
2023/07/14 06:44:04;;;;;;;999.90;914.58;;;;;;;26.88;44.05;101635.03;5090409;28;20157;-68
2023/07/14 06:46:30;;;;;;;983.40;899.65;;;;;;;26.67;45.02;101628.41;5091382;28;20502;-68
2023/07/14 06:48:57;;;;;;;968.63;887.65;;;;;;;26.76;45.09;101633.16;5089965;28;20032;-69
2023/07/14 06:51:24;;;;;;;979.35;896.42;;;;;;;27.79;42.88;101633.34;5090443;28;20024;-69
2023/07/14 06:53:49;;;;;;;1044.72;949.20;;;;;;;29.04;40.06;101631.53;5089348;28;20102;-69
2023/07/14 06:56:15;;;;;;;1125.80;999.90;;;;;;;27.80;41.93;101635.09;5089792;28;20058;-68
2023/07/14 06:58:43;;;;;;;1175.88;999.90;;;;;;;27.84;42.86;101631.22;5090014;28;20515;-68
2023/07/14 07:01:09;;;;;;;1174.80;999.90;;;;;;;28.10;42.33;101629.38;5091253;28;20026;-69
2023/07/14 07:03:35;;;;;;;1250.60;999.90;;;;;;;30.36;38.26;101625.66;5089799;28;20404;-68
2023/07/14 07:06:00;;;;;;;1453.30;999.90;;;;;;;30.78;36.91;101628.53;5090381;28;20031;-68
2023/07/14 07:08:26;;;;;;;1844.30;999.90;;;;;;;29.67;37.66;101634.75;5089544;28;20387;-69
2023/07/14 07:10:52;;;;;;;1891.82;999.90;;;;;;;31.61;34.87;101630.59;5089660;28;20020;-69
2023/07/14 07:13:18;;;;;;;1999.90;999.90;;;;;;;30.54;36.77;101628.75;5089890;28;20027;-69
2023/07/14 07:15:43;;;;;;;1999.90;999.90;;;;;;;29.25;38.88;101629.91;5088827;28;20079;-69
2023/07/14 07:18:09;;;;;;;1999.90;999.90;;;;;;;29.53;38.55;101622.38;5089781;28;20024;-69
2023/07/14 07:20:42;;;;;;;1935.07;999.90;;;;;;;29.53;38.93;101617.00;5089555;28;20108;-68
2023/07/14 07:23:08;;;;;;;1966.07;999.90;;;;;;;27.91;41.10;101621.75;5089084;28;20027;-68
2023/07/14 07:25:37;;;;;;;1823.75;999.90;;;;;;;28.65;40.37;101614.75;5089347;28;20031;-68
2023/07/14 07:28:03;;;;;;;1797.68;999.90;;;;;;;29.15;39.36;101609.19;5089790;28;20499;-68
2023/07/14 07:30:31;;;;;;;1785.25;999.90;;;;;;;28.20;40.39;101610.75;5088601;28;20038;-68
2023/07/14 07:32:57;;;;;;;1679.45;999.90;;;;;;;28.71;39.98;101603.50;5089227;28;20016;-69
2023/07/14 07:35:23;;;;;;;1385.18;999.90;;;;;;;28.67;40.48;101602.03;5088802;28;20039;-69
2023/07/14 07:37:48;;;;;;;1292.60;999.90;;;;;;;28.73;40.30;101606.94;5090381;28;20391;-69
2023/07/14 07:40:13;;;;;;;1244.28;999.90;;;;;;;29.40;39.43;101605.47;5089594;28;20028;-68
2023/07/14 07:42:40;;;;;;;1253.38;999.90;;;;;;;28.70;40.45;101604.47;5087779;28;20034;-68
2023/07/14 07:45:07;;;;;;;1310.70;999.90;;;;;;;27.83;41.53;101608.00;5089493;28;20024;-68
2023/07/14 07:47:32;;;;;;;1298.57;999.90;;;;;;;29.20;39.42;101610.53;5090642;28;20094;-68
2023/07/14 07:49:57;;;;;;;1502.97;999.90;;;;;;;28.68;39.66;101603.75;5088042;28;20036;-68
2023/07/14 07:52:23;;;;;;;1538.60;999.90;;;;;;;30.00;38.25;101597.19;5089292;28;20020;-68
2023/07/14 07:54:49;;;;;;;1697.55;999.90;;;;;;;30.73;36.69;101584.03;5087146;28;20548;-68
2023/07/14 07:57:14;;;;;;;1999.90;999.90;;;;;;;29.88;37.80;101593.66;5051812;28;20538;-69
2023/07/14 07:59:40;;;;;;;1999.90;999.90;;;;;;;30.11;37.20;101602.56;5051746;28;20047;-68
2023/07/14 08:02:06;;;;;;;1999.90;999.90;;;;;;;30.88;35.08;101598.91;5070112;28;20021;-68
2023/07/14 08:04:36;;;;;;;1999.90;999.90;;;;;;;31.94;33.11;101594.34;5051362;28;20098;-69
2023/07/14 08:07:02;;;;;;;1999.90;999.90;;;;;;;31.78;33.83;101591.28;5069733;28;20031;-68
2023/07/14 08:09:27;;;;;;;1999.90;999.90;;;;;;;32.42;32.98;101594.59;5052082;28;20344;-69
2023/07/14 08:11:56;;;;;;;1999.90;999.90;;;;;;;28.98;38.58;101595.19;5050755;28;20566;-69
2023/07/14 08:14:22;;;;;;;1905.95;986.38;;;;;;;29.21;37.51;101600.63;5052019;28;20028;-68
2023/07/14 08:16:48;;;;;;;1999.90;999.90;;;;;;;30.08;36.83;101583.97;5051263;28;20031;-68
2023/07/14 08:19:13;;;;;;;1999.90;999.90;;;;;;;29.39;37.04;101593.84;5051082;28;20032;-69
2023/07/14 08:21:39;;;;;;;1999.90;999.90;;;;;;;29.70;37.01;101586.03;5051152;28;20060;-68
2023/07/14 08:24:09;;;;;;;1999.90;999.90;;;;;;;29.81;36.62;101582.47;5070054;28;20029;-69
2023/07/14 08:26:36;;;;;;;1999.90;999.90;;;;;;;29.53;37.43;101590.06;5050701;28;20078;-68
2023/07/14 08:29:03;;;;;;;1999.90;999.90;;;;;;;29.52;37.04;101599.09;5069263;28;20028;-68
2023/07/14 08:31:29;;;;;;;1999.90;999.90;;;;;;;29.69;36.32;101594.22;5051598;28;20024;-68
2023/07/14 08:33:56;;;;;;;1999.90;999.90;;;;;;;29.61;36.67;101597.53;5050170;28;20032;-68
2023/07/14 08:36:22;;;;;;;1999.90;999.90;;;;;;;29.40;37.36;101595.56;5051541;28;20024;-68
2023/07/14 08:38:48;;;;;;;1983.50;999.90;;;;;;;28.66;37.22;101592.22;5050474;28;20041;-69
2023/07/14 08:41:19;;;;;;;1951.70;999.90;;;;;;;28.71;37.53;101600.81;5051745;28;20113;-68
2023/07/14 08:44:18;;;;;;;1958.20;999.90;;;;;;;28.76;36.99;101601.34;5051318;28;20509;-68
2023/07/14 08:47:09;;;;;;;1943.55;999.90;;;;;;;29.01;36.80;101594.09;5068391;28;20032;-68
2023/07/14 08:50:00;;;;;;;1957.85;999.90;;;;;;;30.35;34.78;101585.34;5051377;28;20033;-68
2023/07/14 08:52:36;;;;;;;1942.00;999.90;;;;;;;28.63;37.70;101589.75;5070083;28;20423;-68
2023/07/14 08:55:11;;;;;;;1977.40;999.90;;;;;;;28.16;37.52;101593.13;5051038;28;20060;-68
2023/07/14 08:57:52;;;;;;;1999.90;999.90;;;;;;;29.76;36.09;101584.69;5069140;28;20021;-68
2023/07/14 09:00:36;;;;;;;1906.68;999.90;;;;;;;30.80;34.02;101579.84;5050878;28;20024;-68
2023/07/14 09:03:32;;;;;;;1999.90;999.90;;;;;;;31.35;31.02;101578.81;5051067;28;20024;-69
2023/07/14 09:06:03;;;;;;;1999.90;999.90;;;;;;;29.67;33.32;101580.03;5050851;28;20032;-69
2023/07/14 09:08:29;;;;;;;1999.90;999.90;;;;;;;32.73;30.26;101567.47;5068458;28;20032;-68
2023/07/14 09:11:13;;;;;;;1999.90;999.90;;;;;;;33.15;29.13;101567.09;5068707;28;20028;-68
2023/07/14 09:13:54;;;;;;;1999.90;999.90;;;;;;;33.77;28.84;101553.09;5050494;28;20029;-69
2023/07/14 09:16:24;;;;;;;1999.90;999.90;;;;;;;32.54;29.24;101565.56;5069412;28;20024;-67
2023/07/14 09:19:12;;;;;;;1999.90;999.90;;;;;;;34.43;27.25;101560.13;5050638;28;20499;-68
2023/07/14 09:21:48;;;;;;;1999.90;999.90;;;;;;;34.31;27.72;101551.34;5039560;28;20037;-67
2023/07/14 09:24:31;;;;;;;1999.90;999.90;;;;;;;34.44;26.74;101558.25;5051600;28;20025;-67
2023/07/14 09:26:57;;;;;;;1999.90;999.90;;;;;;;33.08;27.97;101568.69;5050605;28;20116;-67
2023/07/14 09:29:43;;;;;;;1999.90;999.90;;;;;;;31.50;29.45;101565.81;5050209;28;20512;-68
2023/07/14 09:32:30;;;;;;;1999.90;999.90;;;;;;;30.87;31.48;101554.06;5051198;28;20040;-67
2023/07/14 09:35:09;;;;;;;1999.90;999.90;;;;;;;32.88;28.39;101568.72;5067463;28;20078;-67
2023/07/14 09:37:50;;;;;;;1999.90;999.90;;;;;;;32.23;28.25;101568.38;5068464;28;20047;-67
2023/07/14 09:40:25;;;;;;;1999.90;999.90;;;;;;;32.78;27.86;101568.72;5052169;28;20017;-67
2023/07/14 09:42:56;;;;;;;1999.90;999.90;;;;;;;33.03;27.82;101560.13;5053231;28;20032;-67
2023/07/14 09:45:26;;;;;;;1999.90;999.90;;;;;;;31.57;30.35;101561.56;5072732;28;20028;-67
2023/07/14 09:48:01;;;;;;;1999.90;999.90;;;;;;;32.64;28.22;101561.88;5071701;28;20057;-68
2023/07/14 09:50:30;;;;;;;1999.90;999.90;;;;;;;31.88;29.20;101554.34;5071929;28;20043;-68
2023/07/14 09:53:00;;;;;;;1999.90;999.90;;;;;;;31.95;28.26;101550.06;5054368;28;20115;-68
2023/07/14 09:55:29;;;;;;;1999.90;999.90;;;;;;;32.94;28.54;101551.88;5064014;28;20052;-68
2023/07/14 09:57:56;;;;;;;1999.90;999.90;;;;;;;33.55;27.62;101549.75;5091355;28;20683;-68
2023/07/14 10:00:28;;;;;;;1999.90;999.90;;;;;;;33.74;27.75;101537.94;5091399;28;20121;-68
2023/07/14 10:03:16;;;;;;;1999.90;999.90;;;;;;;32.42;29.30;101541.34;5090709;28;20832;-68
2023/07/14 10:05:53;;;;;;;1999.90;999.90;;;;;;;33.30;27.66;101530.47;5090712;28;20032;-67
2023/07/14 10:08:30;;;;;;;1999.90;999.90;;;;;;;32.37;29.30;101531.94;5091328;28;20361;-68
2023/07/14 10:11:14;;;;;;;1999.90;999.90;;;;;;;31.54;29.97;101530.28;5089583;28;20062;-68
2023/07/14 10:13:49;;;;;;;1999.90;999.90;;;;;;;31.67;29.94;101529.22;5090889;28;20115;-68
2023/07/14 10:16:16;;;;;;;1999.90;999.90;;;;;;;31.27;30.05;101529.03;5091110;28;20119;-68
2023/07/14 10:18:46;;;;;;;1999.90;999.90;;;;;;;32.00;28.17;101521.78;5091114;28;20032;-68
2023/07/14 10:21:15;;;;;;;1999.90;999.90;;;;;;;31.25;29.82;101522.91;5092263;28;20055;-69
2023/07/14 10:23:56;;;;;;;1999.90;999.90;;;;;;;31.86;29.65;101523.03;5090356;28;20016;-68
2023/07/14 10:26:23;;;;;;;1999.90;999.90;;;;;;;30.87;30.60;101532.47;5091499;28;20472;-68
2023/07/14 10:28:51;;;;;;;1999.90;999.90;;;;;;;31.66;30.09;101527.53;5090432;28;20111;-68
2023/07/14 10:31:33;;;;;;;1999.90;999.90;;;;;;;30.07;31.22;101529.19;5089985;28;20578;-68
2023/07/14 10:34:18;;;;;;;1999.90;999.90;;;;;;;28.55;33.57;101534.72;5090908;28;20472;-68
2023/07/14 10:36:43;;;;;;;1776.85;991.42;;;;;;;29.70;32.71;101520.53;5091568;28;20020;-68
2023/07/14 10:39:43;;;;;;;1922.22;999.90;;;;;;;28.91;33.47;101511.38;5090049;28;20027;-67
2023/07/14 10:42:17;;;;;;;1999.90;999.90;;;;;;;29.86;31.14;101487.84;5085026;28;20484;-68
2023/07/14 10:44:44;;;;;;;1877.05;999.90;;;;;;;31.00;31.00;101469.34;5089886;28;20024;-67
2023/07/14 10:47:21;;;;;;;1862.05;999.90;;;;;;;31.29;29.70;101454.16;5089689;28;20495;-68
2023/07/14 10:49:55;;;;;;;1999.90;999.90;;;;;;;30.91;29.94;101463.75;5089956;28;20035;-68
2023/07/14 10:52:29;;;;;;;1909.20;999.90;;;;;;;30.05;31.32;101476.41;5089331;28;20024;-68
2023/07/14 10:55:29;;;;;;;1892.03;999.90;;;;;;;29.73;31.22;101471.78;5087727;28;20039;-68
2023/07/14 10:58:24;;;;;;;1868.22;999.90;;;;;;;29.75;31.41;101476.06;5052448;28;20043;-68
2023/07/14 11:00:58;;;;;;;1997.90;999.90;;;;;;;29.44;31.32;101477.69;5048218;28;20044;-67
2023/07/14 11:03:44;;;;;;;1816.63;999.90;;;;;;;31.30;29.59;101472.06;5071421;28;20028;-68
2023/07/14 11:06:19;;;;;;;1971.47;999.90;;;;;;;31.14;30.43;101477.09;5053079;28;20048;-68
2023/07/14 11:08:53;;;;;;;1861.05;999.90;;;;;;;30.82;29.96;101479.88;5052579;28;20107;-68
2023/07/14 11:11:40;;;;;;;1853.15;999.90;;;;;;;30.80;30.37;101471.91;5071323;28;20131;-68